createdAt,value
2018-03-30T00:00:44.177Z,99991.25
2018-03-30T00:03:12.422Z,99992.97
2018-03-30T00:05:41.555Z,99993.80
2018-03-30T00:08:09.828Z,99993.33
2018-03-30T00:10:43.850Z,99990.78
2018-03-30T00:13:12.111Z,99986.48
2018-03-30T00:15:40.381Z,99980.91
2018-03-30T00:18:08.704Z,99980.04
2018-03-30T00:20:36.948Z,99987.34
2018-03-30T00:23:05.220Z,99986.47
2018-03-30T00:25:33.486Z,99983.91
2018-03-30T00:28:01.745Z,99986.03
2018-03-30T00:30:30.024Z,99982.19
2018-03-30T00:32:58.282Z,99980.07
2018-03-30T00:35:26.551Z,99982.64
2018-03-30T00:37:54.816Z,99970.62
2018-03-30T00:40:23.103Z,99964.58
2018-03-30T00:42:51.364Z,99965.04
2018-03-30T00:45:19.623Z,99966.29
2018-03-30T00:47:47.897Z,99963.30
2018-03-30T00:50:17.016Z,99959.42
2018-03-30T00:52:45.315Z,99965.88
2018-03-30T00:55:13.571Z,99959.02
2018-03-30T00:57:41.839Z,99959.02
2018-03-30T01:00:10.092Z,99962.02
2018-03-30T01:02:38.355Z,99954.72
2018-03-30T01:05:06.616Z,99959.01
2018-03-30T01:07:34.883Z,99951.68
2018-03-30T01:10:03.203Z,99946.52
2018-03-30T01:12:31.464Z,99947.39
2018-03-30T01:14:59.723Z,99941.34
2018-03-30T01:17:27.988Z,99943.94
2018-03-30T01:19:56.251Z,99943.94
2018-03-30T01:22:24.508Z,99940.93
2018-03-30T01:24:52.796Z,99938.34
2018-03-30T01:27:21.059Z,99937.02
2018-03-30T01:29:49.312Z,99939.18
2018-03-30T01:32:17.587Z,99934.03
2018-03-30T01:34:45.848Z,99927.57
2018-03-30T01:37:14.115Z,99929.29
2018-03-30T01:39:42.376Z,99929.30
2018-03-30T01:42:10.654Z,99928.46
2018-03-30T01:44:38.911Z,99930.16
2018-03-30T01:47:07.191Z,99924.15
2018-03-30T01:49:35.447Z,99921.13
2018-03-30T01:52:03.716Z,99916.84
2018-03-30T01:54:32.076Z,99916.83
2018-03-30T01:57:00.356Z,99919.40
2018-03-30T01:59:28.628Z,99919.86
2018-03-30T02:01:56.888Z,99912.11
2018-03-30T02:04:25.159Z,99909.94
2018-03-30T02:06:53.420Z,99905.23
2018-03-30T02:09:21.690Z,99909.97
2018-03-30T02:11:49.953Z,99906.52
2018-03-30T02:14:18.232Z,99899.64
2018-03-30T02:16:46.483Z,99899.19
2018-03-30T02:19:14.759Z,99891.89
2018-03-30T02:21:43.035Z,99892.75
2018-03-30T02:24:11.291Z,99888.88
2018-03-30T02:26:39.556Z,99884.13
2018-03-30T02:29:07.814Z,99881.98
2018-03-30T02:31:36.079Z,99875.95
2018-03-30T02:34:04.336Z,99880.69
2018-03-30T02:36:32.635Z,99878.13
2018-03-30T02:39:00.888Z,99874.66
2018-03-30T02:41:29.156Z,99872.09
2018-03-30T02:43:57.424Z,99876.38
2018-03-30T02:46:25.675Z,99870.36
2018-03-30T02:48:53.945Z,99869.48
2018-03-30T02:51:22.196Z,99854.84
2018-03-30T02:53:50.460Z,99857.41
2018-03-30T02:56:18.719Z,99864.73
2018-03-30T02:58:46.996Z,99862.17
2018-03-30T03:01:15.259Z,99865.18
2018-03-30T03:03:43.504Z,99859.99
2018-03-30T03:06:11.764Z,99858.30
2018-03-30T03:08:40.033Z,99855.30
2018-03-30T03:11:08.287Z,99862.17
2018-03-30T03:13:36.543Z,99857.45
2018-03-30T03:16:04.811Z,99852.27
2018-03-30T03:18:33.063Z,99842.84
2018-03-30T03:21:01.328Z,99847.58
2018-03-30T03:23:29.598Z,99838.06
2018-03-30T03:25:57.862Z,99835.03
2018-03-30T03:28:26.111Z,99833.75
2018-03-30T03:30:54.372Z,99835.46
2018-03-30T03:33:22.636Z,99833.68
2018-03-30T03:35:51.381Z,99827.70
2018-03-30T03:38:19.644Z,99827.67
2018-03-30T03:40:47.910Z,99830.27
2018-03-30T03:43:16.180Z,99820.39
2018-03-30T03:45:44.438Z,99826.01
2018-03-30T03:48:12.707Z,99822.14
2018-03-30T03:50:40.968Z,99817.84
2018-03-30T03:53:09.222Z,99817.83
2018-03-30T03:55:37.485Z,99819.11
2018-03-30T03:58:05.739Z,99813.95
2018-03-30T04:00:33.995Z,99813.14
2018-03-30T04:03:02.255Z,99811.84
2018-03-30T04:05:30.520Z,99813.56
2018-03-30T04:07:58.776Z,99814.42
2018-03-30T04:10:27.060Z,99818.73
2018-03-30T04:12:55.319Z,99813.52
2018-03-30T04:15:23.576Z,99812.26
2018-03-30T04:17:51.843Z,99810.06
2018-03-30T04:20:20.107Z,99797.14
2018-03-30T04:22:48.376Z,99804.94
2018-03-30T04:25:16.627Z,99801.05
2018-03-30T04:27:44.891Z,99804.05
2018-03-30T04:30:13.148Z,99807.05
2018-03-30T04:32:41.419Z,99802.81
2018-03-30T04:35:09.676Z,99796.31
2018-03-30T04:37:37.932Z,99796.82
2018-03-30T04:40:06.191Z,99802.37
2018-03-30T04:42:34.444Z,99796.34
2018-03-30T04:45:02.711Z,99798.92
2018-03-30T04:47:30.963Z,99794.19
2018-03-30T04:49:59.249Z,99798.91
2018-03-30T04:52:27.483Z,99799.77
2018-03-30T04:54:55.756Z,99795.39
2018-03-30T04:57:24.008Z,99792.48
2018-03-30T04:59:52.268Z,99785.16
2018-03-30T05:02:20.536Z,99783.52
2018-03-30T05:04:48.801Z,99777.07
2018-03-30T05:07:17.076Z,99771.89
2018-03-30T05:09:45.331Z,99779.24
2018-03-30T05:12:13.595Z,99775.80
2018-03-30T05:14:41.852Z,99783.09
2018-03-30T05:17:10.123Z,99783.09
2018-03-30T05:19:38.381Z,99785.66
2018-03-30T05:22:06.689Z,99783.53
2018-03-30T05:24:34.906Z,99782.23
2018-03-30T05:27:03.166Z,99777.91
2018-03-30T05:29:31.439Z,99778.33
2018-03-30T05:31:59.699Z,99781.77
2018-03-30T05:34:27.973Z,99781.30
2018-03-30T05:36:56.226Z,99785.52
2018-03-30T05:39:24.507Z,99776.91
2018-03-30T05:41:52.768Z,99779.92
2018-03-30T05:44:21.029Z,99776.51
2018-03-30T05:46:49.293Z,99781.31
2018-03-30T05:49:17.558Z,99776.95
2018-03-30T05:51:45.815Z,99776.90
2018-03-30T05:54:14.067Z,99774.81
2018-03-30T05:56:42.334Z,99776.93
2018-03-30T05:59:10.590Z,99773.83
2018-03-30T06:01:38.867Z,99775.48
2018-03-30T06:04:07.128Z,99782.03
2018-03-30T06:06:35.388Z,99779.81
2018-03-30T06:09:03.660Z,99778.08
2018-03-30T06:11:31.920Z,99784.56
2018-03-30T06:14:00.184Z,99778.08
2018-03-30T06:16:28.445Z,99784.58
2018-03-30T06:18:56.707Z,99771.20
2018-03-30T06:21:24.962Z,99773.41
2018-03-30T06:23:53.228Z,99772.06
2018-03-30T06:26:21.495Z,99775.52
2018-03-30T06:28:49.757Z,99770.80
2018-03-30T06:31:18.015Z,99769.86
2018-03-30T06:33:46.271Z,99773.32
2018-03-30T06:36:14.536Z,99770.72
2018-03-30T06:38:42.791Z,99770.25
2018-03-30T06:41:11.056Z,99769.83
2018-03-30T06:43:39.315Z,99766.22
2018-03-30T06:46:07.580Z,99769.14
2018-03-30T06:48:35.839Z,99776.40
2018-03-30T06:51:04.104Z,99771.61
2018-03-30T06:53:32.359Z,99763.77
2018-03-30T06:56:00.615Z,99770.42
2018-03-30T06:58:28.883Z,99766.30
2018-03-30T07:00:57.143Z,99759.86
2018-03-30T07:03:25.419Z,99756.59
2018-03-30T07:05:53.682Z,99760.87
2018-03-30T07:08:21.976Z,99755.27
2018-03-30T07:10:50.264Z,99754.53
2018-03-30T07:13:18.526Z,99752.16
2018-03-30T07:15:46.804Z,99756.00
2018-03-30T07:18:15.059Z,99754.39
2018-03-30T07:20:43.328Z,99752.21
2018-03-30T07:23:11.596Z,99754.08
2018-03-30T07:25:39.940Z,99744.88
2018-03-30T07:28:08.208Z,99742.09
2018-03-30T07:30:36.496Z,99744.34
2018-03-30T07:33:04.755Z,99746.36
2018-03-30T07:35:33.020Z,99749.03
2018-03-30T07:38:01.303Z,99742.11
2018-03-30T07:40:29.560Z,99742.81
2018-03-30T07:42:57.822Z,99734.20
2018-03-30T07:45:26.087Z,99720.06
2018-03-30T07:47:54.355Z,99723.22
2018-03-30T07:50:22.615Z,99714.45
2018-03-30T07:52:50.900Z,99720.73
2018-03-30T07:55:19.160Z,99707.34
2018-03-30T07:57:47.421Z,99716.27
2018-03-30T08:00:15.692Z,99708.08
2018-03-30T08:02:43.957Z,99707.95
2018-03-30T08:05:12.232Z,99706.97
2018-03-30T08:07:40.503Z,99706.55
2018-03-30T08:10:08.771Z,99702.38
2018-03-30T08:12:37.044Z,99698.45
2018-03-30T08:15:05.308Z,99700.42
2018-03-30T08:17:33.575Z,99693.60
2018-03-30T08:20:01.847Z,99679.55
2018-03-30T08:22:33.375Z,99673.61
2018-03-30T08:25:01.669Z,99678.34
2018-03-30T08:27:30.175Z,99666.38
2018-03-30T08:29:58.486Z,99668.39
2018-03-30T08:32:26.759Z,99656.01
2018-03-30T08:34:55.027Z,99645.41
2018-03-30T08:37:23.303Z,99645.23
2018-03-30T08:39:51.660Z,99643.22
2018-03-30T08:42:19.932Z,99650.36
2018-03-30T08:44:48.309Z,99647.27
2018-03-30T08:47:16.631Z,99639.63
2018-03-30T08:49:44.907Z,99640.22
2018-03-30T08:52:13.187Z,99636.33
2018-03-30T08:54:41.461Z,99639.55
2018-03-30T08:57:09.725Z,99636.93
2018-03-30T08:59:37.996Z,99632.67
2018-03-30T09:02:06.264Z,99631.20
2018-03-30T09:04:34.548Z,99629.14
2018-03-30T09:07:02.836Z,99618.06
2018-03-30T09:09:31.115Z,99620.13
2018-03-30T09:11:59.395Z,99619.42
2018-03-30T09:14:27.679Z,99609.28
2018-03-30T09:16:55.952Z,99611.20
2018-03-30T09:19:24.258Z,99607.84
2018-03-30T09:21:52.568Z,99610.47
2018-03-30T09:24:21.112Z,99600.14
2018-03-30T09:26:50.048Z,99606.84
2018-03-30T09:29:18.308Z,99595.27
2018-03-30T09:31:46.580Z,99594.15
2018-03-30T09:34:14.916Z,99591.86
2018-03-30T09:36:43.187Z,99582.27
2018-03-30T09:39:11.469Z,99585.76
2018-03-30T09:41:39.759Z,99579.38
2018-03-30T09:44:08.172Z,99582.42
2018-03-30T09:46:36.502Z,99566.36
2018-03-30T09:49:04.772Z,99574.33
2018-03-30T09:51:33.055Z,99583.85
2018-03-30T09:54:01.321Z,99571.82
2018-03-30T09:56:29.605Z,99577.91
2018-03-30T09:58:59.392Z,99566.98
2018-03-30T10:01:27.653Z,99554.73
2018-03-30T10:03:55.943Z,99561.70
2018-03-30T10:06:24.187Z,99543.14
2018-03-30T10:08:52.463Z,99550.66
2018-03-30T10:11:20.757Z,99536.69
2018-03-30T10:13:49.040Z,99535.41
2018-03-30T10:16:17.303Z,99527.25
2018-03-30T10:18:45.641Z,99516.41
2018-03-30T10:21:13.844Z,99503.13
2018-03-30T10:23:42.108Z,99504.20
2018-03-30T10:26:10.379Z,99491.23
2018-03-30T10:28:38.660Z,99492.00
2018-03-30T10:31:07.003Z,99464.45
2018-03-30T10:33:35.268Z,99472.90
2018-03-30T10:36:03.561Z,99461.55
2018-03-30T10:38:31.816Z,99453.21
2018-03-30T10:41:00.103Z,99436.80
2018-03-30T10:43:28.363Z,99431.01
2018-03-30T10:45:56.631Z,99416.89
2018-03-30T10:48:24.896Z,99416.14
2018-03-30T10:50:53.166Z,99406.73
2018-03-30T10:53:21.430Z,99404.55
2018-03-30T10:55:49.707Z,99395.29
2018-03-30T10:58:18.015Z,99386.36
2018-03-30T11:00:46.279Z,99379.52
2018-03-30T11:03:14.554Z,99362.20
2018-03-30T11:05:48.367Z,99360.58
2018-03-30T11:08:16.652Z,99362.92
2018-03-30T11:10:44.925Z,99359.11
2018-03-30T11:13:13.229Z,99374.00
2018-03-30T11:15:41.491Z,99387.77
2018-03-30T11:18:09.764Z,99388.70
2018-03-30T11:20:38.025Z,99383.50
2018-03-30T11:23:06.300Z,99378.09
2018-03-30T11:25:34.568Z,99374.20
2018-03-30T11:28:02.891Z,99358.52
2018-03-30T11:30:31.168Z,99348.77
2018-03-30T11:32:59.440Z,99345.80
2018-03-30T11:35:27.720Z,99340.31
2018-03-30T11:37:55.993Z,99344.70
2018-03-30T11:40:24.848Z,99352.28
2018-03-30T11:42:53.112Z,99344.06
2018-03-30T11:45:21.388Z,99367.97
2018-03-30T11:47:49.652Z,99356.51
2018-03-30T11:50:17.933Z,99350.38
2018-03-30T11:52:46.209Z,99351.23
2018-03-30T11:55:14.474Z,99342.12
2018-03-30T11:57:42.740Z,99337.83
2018-03-30T12:00:11.020Z,99346.08
2018-03-30T12:02:39.310Z,99339.78
2018-03-30T12:05:07.576Z,99336.87
2018-03-30T12:07:35.844Z,99342.66
2018-03-30T12:10:04.111Z,99336.08
2018-03-30T12:12:32.429Z,99338.91
2018-03-30T12:15:00.697Z,99334.19
2018-03-30T12:17:28.969Z,99340.72
2018-03-30T12:19:57.244Z,99343.78
2018-03-30T12:22:25.510Z,99341.95
2018-03-30T12:24:53.788Z,99338.13
2018-03-30T12:27:22.059Z,99331.23
2018-03-30T12:29:50.335Z,99330.42
2018-03-30T12:32:18.640Z,99327.98
2018-03-30T12:34:46.903Z,99329.41
2018-03-30T12:37:15.164Z,99321.30
2018-03-30T12:39:43.436Z,99328.98
2018-03-30T12:42:11.736Z,99323.69
2018-03-30T12:44:40.017Z,99320.64
2018-03-30T12:47:08.280Z,99318.19
2018-03-30T12:49:36.555Z,99322.55
2018-03-30T12:52:04.828Z,99304.66
2018-03-30T12:54:33.104Z,99307.80
2018-03-30T12:57:01.374Z,99301.09
2018-03-30T12:59:29.651Z,99291.45
2018-03-30T13:01:57.937Z,99290.03
2018-03-30T13:04:26.221Z,99290.23
2018-03-30T13:06:54.483Z,99280.36
2018-03-30T13:09:22.753Z,99271.52
2018-03-30T13:11:51.017Z,99266.38
2018-03-30T13:14:19.350Z,99273.32
2018-03-30T13:16:47.571Z,99275.20
2018-03-30T13:19:15.843Z,99268.02
2018-03-30T13:21:44.125Z,99270.04
2018-03-30T13:24:12.395Z,99269.27
2018-03-30T13:26:40.700Z,99259.02
2018-03-30T13:29:08.940Z,99256.20
2018-03-30T13:31:37.213Z,99254.48
2018-03-30T13:34:05.495Z,99242.99
2018-03-30T13:36:33.780Z,99240.22
2018-03-30T13:39:02.044Z,99225.84
2018-03-30T13:41:30.339Z,99223.92
2018-03-30T13:43:58.630Z,99218.87
2018-03-30T13:46:26.892Z,99213.58
2018-03-30T13:48:55.540Z,99211.79
2018-03-30T13:51:32.284Z,99201.81
2018-03-30T13:54:00.555Z,99209.66
2018-03-30T13:56:29.731Z,99209.56
2018-03-30T13:59:15.441Z,99214.84
2018-03-30T14:01:49.248Z,99210.30
2018-03-30T14:04:37.956Z,99215.23
2018-03-30T14:07:14.664Z,99199.73
2018-03-30T14:09:43.716Z,99188.83
2018-03-30T14:12:25.549Z,99189.95
2018-03-30T14:14:53.828Z,99186.83
2018-03-30T14:17:23.912Z,99180.42
2018-03-30T14:19:52.963Z,99179.86
2018-03-30T14:22:24.751Z,99168.33
2018-03-30T14:24:55.779Z,99172.91
2018-03-30T14:27:26.675Z,99163.77
2018-03-30T14:29:57.659Z,99175.48
2018-03-30T14:32:26.763Z,99171.59
2018-03-30T14:37:53.511Z,99159.62
2018-03-30T14:40:22.707Z,99150.82
2018-03-30T14:42:53.716Z,99153.70
2018-03-30T14:45:24.130Z,99146.47
2018-03-30T14:47:55.816Z,99144.97
2018-03-30T14:50:24.900Z,99153.47
2018-03-30T14:52:57.060Z,99151.14
2018-03-30T14:55:36.167Z,99144.91
2018-03-30T14:58:16.299Z,99139.80
2018-03-30T15:00:46.301Z,99147.41
2018-03-30T15:03:17.119Z,99136.59
2018-03-30T15:05:58.197Z,99135.72
2018-03-30T15:08:45.723Z,99131.02
2018-03-30T15:11:27.450Z,99134.67
2018-03-30T15:13:57.112Z,99125.11
2018-03-30T15:19:52.144Z,99130.60
2018-03-30T15:22:21.032Z,99126.01
2018-03-30T15:24:50.097Z,99124.70
2018-03-30T15:27:38.198Z,99115.51
2018-03-30T15:33:06.771Z,99109.98
2018-03-30T15:38:36.616Z,99091.46
2018-03-30T15:41:04.875Z,99096.34
2018-03-30T15:43:34.816Z,99085.67
2018-03-30T15:49:16.012Z,99090.14
2018-03-30T15:52:00.084Z,99091.46
2018-03-30T15:54:27.803Z,99096.58
2018-03-30T15:56:56.079Z,99105.41
2018-03-30T15:59:24.347Z,99092.72
2018-03-30T16:01:52.611Z,99099.00
2018-03-30T16:04:20.880Z,99096.25
2018-03-30T16:06:49.148Z,99102.21
2018-03-30T16:09:24.123Z,99111.92
2018-03-30T16:11:53.854Z,99111.88
2018-03-30T16:14:22.131Z,99122.69
2018-03-30T16:16:50.395Z,99125.32
2018-03-30T16:19:18.136Z,99115.36
2018-03-30T16:21:45.873Z,99110.33
2018-03-30T16:24:13.605Z,99121.80
2018-03-30T16:26:41.330Z,99125.09
2018-03-30T16:29:09.083Z,99127.08
2018-03-30T16:31:36.826Z,99121.33
2018-03-30T16:34:04.552Z,99134.53
2018-03-30T16:36:32.284Z,99134.64
2018-03-30T16:39:00.034Z,99140.33
2018-03-30T16:41:27.483Z,99141.48
2018-03-30T16:43:54.974Z,99142.16
2018-03-30T16:46:22.411Z,99140.20
2018-03-30T16:48:49.862Z,99139.45
2018-03-30T16:51:17.318Z,99139.05
2018-03-30T16:53:44.760Z,99130.28
2018-03-30T16:56:12.216Z,99130.13
2018-03-30T16:58:39.688Z,99136.59
2018-03-30T17:01:07.149Z,99135.53
2018-03-30T17:03:34.599Z,99130.84
2018-03-30T17:06:02.056Z,99140.63
2018-03-30T17:08:29.505Z,99139.14
2018-03-30T17:10:56.966Z,99151.03
2018-03-30T17:13:24.433Z,99151.84
2018-03-30T17:15:51.883Z,99148.48
2018-03-30T17:18:19.380Z,99158.53
2018-03-30T17:20:46.836Z,99157.13
2018-03-30T17:23:14.283Z,99156.58
2018-03-30T17:25:41.728Z,99158.41
2018-03-30T17:28:09.300Z,99152.40
2018-03-30T17:30:36.860Z,99153.48
2018-03-30T17:33:04.341Z,99157.06
2018-03-30T17:35:31.789Z,99160.00
2018-03-30T17:37:59.243Z,99164.89
2018-03-30T17:40:26.692Z,99161.55
2018-03-30T17:42:54.180Z,99163.34
2018-03-30T17:45:21.624Z,99170.80
2018-03-30T17:47:49.080Z,99182.47
2018-03-30T17:50:16.523Z,99186.06
2018-03-30T17:52:44.000Z,99179.25
2018-03-30T17:55:11.446Z,99175.79
2018-03-30T17:57:38.899Z,99176.61
2018-03-30T18:00:06.340Z,99174.04
2018-03-30T18:02:33.795Z,99171.50
2018-03-30T18:05:01.236Z,99166.09
2018-03-30T18:07:28.705Z,99168.49
2018-03-30T18:09:56.144Z,99173.31
2018-03-30T18:12:23.601Z,99172.44
2018-03-30T18:14:51.056Z,99168.22
2018-03-30T18:17:18.576Z,99169.73
2018-03-30T18:19:46.078Z,99171.66
2018-03-30T18:22:13.529Z,99177.70
2018-03-30T18:24:40.983Z,99176.11
2018-03-30T18:27:08.435Z,99180.30
2018-03-30T18:29:35.891Z,99182.33
2018-03-30T18:32:03.339Z,99184.72
2018-03-30T18:34:30.800Z,99184.45
2018-03-30T18:36:58.249Z,99187.98
2018-03-30T18:39:25.703Z,99197.78
2018-03-30T18:41:53.151Z,99193.37
2018-03-30T18:44:20.604Z,99195.48
2018-03-30T18:46:48.044Z,99201.70
2018-03-30T18:49:15.501Z,99201.66
2018-03-30T18:51:42.943Z,99204.91
2018-03-30T18:54:10.401Z,99197.47
2018-03-30T18:56:37.895Z,99186.20
2018-03-30T18:59:05.348Z,99188.81
2018-03-30T19:01:32.792Z,99188.88
2018-03-30T19:04:00.235Z,99189.86
2018-03-30T19:06:27.700Z,99191.30
2018-03-30T19:08:55.135Z,99204.75
2018-03-30T19:11:22.600Z,99199.48
2018-03-30T19:13:50.048Z,99211.76
2018-03-30T19:16:17.503Z,99215.13
2018-03-30T19:18:44.953Z,99222.55
2018-03-30T19:21:12.404Z,99229.54
2018-03-30T19:23:39.856Z,99238.55
2018-03-30T19:26:07.319Z,99242.20
2018-03-30T19:28:41.720Z,99234.77
2018-03-30T19:31:09.173Z,99235.31
2018-03-30T19:33:38.599Z,99233.11
2018-03-30T19:36:06.057Z,99226.36
2018-03-30T19:38:33.692Z,99229.16
2018-03-30T19:41:02.167Z,99223.09
2018-03-30T19:43:29.607Z,99219.45
2018-03-30T19:46:07.519Z,99223.70
2018-03-30T19:48:34.968Z,99214.58
2018-03-30T19:51:02.448Z,99212.19
2018-03-30T19:53:29.907Z,99210.88
2018-03-30T19:55:57.359Z,99211.93
2018-03-30T19:58:24.817Z,99209.95
2018-03-30T20:00:52.267Z,99214.38
2018-03-30T20:03:19.731Z,99222.98
2018-03-30T20:05:47.183Z,99221.17
2018-03-30T20:08:14.635Z,99218.55
2018-03-30T20:10:42.080Z,99226.26
2018-03-30T20:13:09.553Z,99225.67
2018-03-30T20:15:37.006Z,99227.40
2018-03-30T20:18:04.451Z,99226.62
2018-03-30T20:20:31.924Z,99224.36
2018-03-30T20:22:59.379Z,99217.82
2018-03-30T20:25:26.828Z,99224.76
2018-03-30T20:27:54.280Z,99224.63
2018-03-30T20:30:21.727Z,99225.53
2018-03-30T20:32:49.203Z,99229.48
2018-03-30T20:35:16.658Z,99232.30
2018-03-30T20:37:44.095Z,99234.55
2018-03-30T20:40:11.547Z,99232.26
2018-03-30T20:42:39.029Z,99227.40
2018-03-30T20:45:06.472Z,99225.73
2018-03-30T20:47:33.943Z,99237.02
2018-03-30T20:50:01.405Z,99238.48
2018-03-30T20:52:28.876Z,99245.53
2018-03-30T20:54:56.341Z,99249.83
2018-03-30T20:57:23.795Z,99243.00
2018-03-30T20:59:51.256Z,99246.41
2018-03-30T21:02:18.699Z,99244.05
2018-03-30T21:04:46.315Z,99233.19
2018-03-30T21:07:13.740Z,99231.09
2018-03-30T21:09:41.188Z,99225.92
2018-03-30T21:12:08.641Z,99224.31
2018-03-30T21:14:36.109Z,99237.59
2018-03-30T21:17:03.559Z,99239.52
2018-03-30T21:19:31.021Z,99237.70
2018-03-30T21:21:58.463Z,99248.78
2018-03-30T21:24:25.920Z,99242.12
2018-03-30T21:26:53.428Z,99241.44
2018-03-30T21:29:20.916Z,99248.88
2018-03-30T21:31:48.355Z,99254.41
2018-03-30T21:34:15.832Z,99250.55
2018-03-30T21:36:43.293Z,99246.31
2018-03-30T21:39:10.761Z,99245.09
2018-03-30T21:41:38.224Z,99242.01
2018-03-30T21:44:05.681Z,99246.36
2018-03-30T21:46:33.148Z,99247.63
2018-03-30T21:49:00.612Z,99253.33
2018-03-30T21:51:28.065Z,99252.07
2018-03-30T21:53:55.512Z,99255.53
2018-03-30T21:56:22.968Z,99259.09
2018-03-30T21:58:50.419Z,99271.64
2018-03-30T22:01:17.893Z,99269.59
2018-03-30T22:03:45.339Z,99264.51
2018-03-30T22:06:12.783Z,99261.03
2018-03-30T22:08:40.240Z,99254.37
2018-03-30T22:11:07.695Z,99262.61
2018-03-30T22:13:35.148Z,99262.55
2018-03-30T22:16:02.603Z,99265.22
2018-03-30T22:18:30.059Z,99266.07
2018-03-30T22:20:57.515Z,99253.69
2018-03-30T22:23:24.991Z,99257.02
2018-03-30T22:25:52.439Z,99249.98
2018-03-30T22:28:19.903Z,99258.76
2018-03-30T22:30:47.351Z,99253.06
2018-03-30T22:33:14.851Z,99256.61
2018-03-30T22:35:42.251Z,99255.47
2018-03-30T22:38:09.712Z,99250.05
2018-03-30T22:40:37.160Z,99254.48
2018-03-30T22:43:04.611Z,99255.52
2018-03-30T22:45:32.060Z,99252.28
2018-03-30T22:47:59.516Z,99253.53
2018-03-30T22:50:26.956Z,99259.05
2018-03-30T22:52:54.420Z,99267.98
2018-03-30T22:55:21.866Z,99267.77
2018-03-30T22:57:49.311Z,99260.94
2018-03-30T23:00:16.789Z,99270.37
2018-03-30T23:02:44.236Z,99265.20
2018-03-30T23:05:11.992Z,99264.20
2018-03-30T23:07:39.711Z,99257.58
2018-03-30T23:10:07.439Z,99257.78
2018-03-30T23:12:35.176Z,99260.30
2018-03-30T23:15:02.907Z,99258.65
2018-03-30T23:17:30.638Z,99252.69
2018-03-30T23:19:58.372Z,99251.05
2018-03-30T23:22:26.097Z,99249.29
2018-03-30T23:24:53.831Z,99248.43
2018-03-30T23:27:21.582Z,99241.89
2018-03-30T23:29:49.315Z,99243.09
2018-03-30T23:32:17.038Z,99243.48
2018-03-30T23:34:44.776Z,99250.09
2018-03-30T23:37:12.505Z,99253.37
2018-03-30T23:39:40.245Z,99254.91
2018-03-30T23:42:08.007Z,99251.20
2018-03-30T23:44:35.677Z,99262.95
2018-03-30T23:47:03.405Z,99263.52
2018-03-30T23:49:31.137Z,99266.23
2018-03-30T23:51:58.867Z,99262.36
2018-03-30T23:54:26.593Z,99264.18
2018-03-30T23:56:54.323Z,99259.77
2018-03-30T23:59:22.047Z,99254.06
